Time;durP1;ratioP1;P1;durP2;ratioP2;P2;SDS_P1;SDS_P2;PMS_P1;PMS_P2;Temp;Humidity;BMP_temperature;BMP_pressure;BME280_temperature;BME280_humidity;BME280_pressure;Samples;Min_cycle;Max_cycle;Signal;HPM_P1;HPM_P2
2021/03/04 00:00:57;;;;;;;;;;;;;;;;;;4993924;28;19930;-68
2021/03/04 00:03:24;;;;;;;;;;;;;;;;;;4987152;28;19969;-68
2021/03/04 00:05:51;;;;;;;;;;;;;;;;;;4989727;28;19933;-67
2021/03/04 00:08:19;;;;;;;;;;;;;;;;;;4991590;28;20315;-68
2021/03/04 00:10:46;;;;;;;;;;;;;;;;;;4993259;28;19926;-68
2021/03/04 00:13:13;;;;;;;;;;;;;;;;;;4988381;28;20496;-67
2021/03/04 00:15:41;;;;;;;;;;;;;;;;;;4993608;28;20024;-67
2021/03/04 00:18:08;;;;;;;;;;;;;;;;;;4992085;28;19925;-68
2021/03/04 00:20:36;;;;;;;;;;;;;;;;;;4994925;28;19972;-68
2021/03/04 00:23:03;;;;;;;;;;;;;;;;;;4992565;28;19961;-67
2021/03/04 00:25:30;;;;;;;;;;;;;;;;;;4993001;28;19930;-68
2021/03/04 00:27:57;;;;;;;;;;;;;;;;;;4990942;28;19926;-68
2021/03/04 00:30:24;;;;;;;;;;;;;;;;;;4993307;28;20408;-67
2021/03/04 00:32:51;;;;;;;;;;;;;;;;;;4992399;28;20372;-67
2021/03/04 00:35:18;;;;;;;;;;;;;;;;;;4993538;28;19937;-68
2021/03/04 00:37:45;;;;;;;;;;;;;;;;;;4992704;28;20281;-67
2021/03/04 00:40:12;;;;;;;;;;;;;;;;;;4992573;28;19926;-68
2021/03/04 00:42:40;;;;;;;;;;;;;;;;;;4993297;28;19965;-68
2021/03/04 00:45:07;;;;;;;;;;;;;;;;;;4993528;28;19929;-68
2021/03/04 00:47:34;;;;;;;;;;;;;;;;;;4993183;28;20407;-68
2021/03/04 00:50:01;;;;;;;;;;;;;;;;;;4992574;28;20609;-67
2021/03/04 00:52:28;;;;;;;;;;;;;;;;;;4993067;28;20174;-68
2021/03/04 00:54:55;;;;;;;;;;;;;;;;;;4978580;28;19930;-68
2021/03/04 00:57:22;;;;;;;;;;;;;;;;;;4992247;28;20491;-68
2021/03/04 00:59:49;;;;;;;;;;;;;;;;;;4992273;28;19930;-67
2021/03/04 01:02:17;;;;;;;;;;;;;;;;;;4991811;28;19934;-67
2021/03/04 01:04:44;;;;;;;;;;;;;;;;;;4981741;28;19930;-67
2021/03/04 01:07:11;;;;;;;;;;;;;;;;;;4991827;28;19925;-67
2021/03/04 01:09:38;;;;;;;;;;;;;;;;;;4992341;28;20001;-68
2021/03/04 01:12:05;;;;;;;;;;;;;;;;;;4991875;28;19926;-68
2021/03/04 01:14:32;;;;;;;;;;;;;;;;;;4991282;28;20017;-68
2021/03/04 01:16:59;;;;;;;;;;;;;;;;;;4991315;28;20518;-68
2021/03/04 01:19:27;;;;;;;;;;;;;;;;;;4992956;28;19936;-68
2021/03/04 01:21:54;;;;;;;;;;;;;;;;;;4993226;28;19929;-68
2021/03/04 01:24:21;;;;;;;;;;;;;;;;;;4992502;28;20029;-67
2021/03/04 01:26:48;;;;;;;;;;;;;;;;;;4981962;28;20028;-67
2021/03/04 01:29:15;;;;;;;;;;;;;;;;;;4989623;28;20021;-67
2021/03/04 01:31:42;;;;;;;;;;;;;;;;;;4982264;28;19929;-68
2021/03/04 01:34:10;;;;;;;;;;;;;;;;;;4992074;28;19941;-67
2021/03/04 01:36:37;;;;;;;;;;;;;;;;;;4992279;28;19936;-67
2021/03/04 01:39:04;;;;;;;;;;;;;;;;;;4987668;28;19930;-67
2021/03/04 01:41:31;;;;;;;;;;;;;;;;;;4992223;28;19937;-67
2021/03/04 01:43:58;;;;;;;;;;;;;;;;;;4991685;28;20293;-67
2021/03/04 01:46:25;;;;;;;;;;;;;;;;;;4991587;28;19926;-67
2021/03/04 01:48:53;;;;;;;;;;;;;;;;;;4984830;28;19930;-68
2021/03/04 01:51:20;;;;;;;;;;;;;;;;;;4987440;28;20036;-68
2021/03/04 01:53:47;;;;;;;;;;;;;;;;;;4991819;28;20016;-68
2021/03/04 01:56:14;;;;;;;;;;;;;;;;;;4992081;28;20028;-67
2021/03/04 01:58:41;;;;;;;;;;;;;;;;;;4982575;28;20017;-68
2021/03/04 02:01:08;;;;;;;;;;;;;;;;;;4986974;28;19973;-68
2021/03/04 02:03:35;;;;;;;;;;;;;;;;;;4999208;23;19932;-89
2021/03/04 02:06:02;;;;;;;;;;;;;;;;;;4995417;28;20444;-87
2021/03/04 02:08:30;;;;;;;;;;;;;;;;;;4998215;28;20331;-87
2021/03/04 02:10:57;;;;;;;;;;;;;;;;;;5012937;28;20375;-87
2021/03/04 02:13:24;;;;;;;;;;;;;;;;;;5027762;28;20042;-87
2021/03/04 02:15:51;;;;;;;;;;;;;;;;;;5015408;28;19929;-87
2021/03/04 02:18:18;;;;;;;;;;;;;;;;;;5028102;28;20007;-87
2021/03/04 02:20:46;;;;;;;;;;;;;;;;;;5028592;28;19968;-87
2021/03/04 02:23:13;;;;;;;;;;;;;;;;;;5027240;28;19925;-87
2021/03/04 02:25:40;;;;;;;;;;;;;;;;;;5024448;28;19968;-87
2021/03/04 02:28:07;;;;;;;;;;;;;;;;;;5014139;28;19925;-87
2021/03/04 02:30:34;;;;;;;;;;;;;;;;;;5013533;28;20520;-87
2021/03/04 02:33:01;;;;;;;;;;;;;;;;;;5017380;28;19932;-86
2021/03/04 02:35:29;;;;;;;;;;;;;;;;;;5022883;28;19929;-87
2021/03/04 02:37:56;;;;;;;;;;;;;;;;;;5025053;28;19976;-87
2021/03/04 02:40:23;;;;;;;;;;;;;;;;;;5020841;28;20005;-87
2021/03/04 02:42:50;;;;;;;;;;;;;;;;;;5030722;28;19925;-87
2021/03/04 02:45:17;;;;;;;;;;;;;;;;;;5029390;28;20012;-87
2021/03/04 02:47:44;;;;;;;;;;;;;;;;;;5033419;28;20400;-87
2021/03/04 02:50:12;;;;;;;;;;;;;;;;;;5028962;28;20399;-87
2021/03/04 02:52:39;;;;;;;;;;;;;;;;;;5031446;28;19931;-87
2021/03/04 02:55:06;;;;;;;;;;;;;;;;;;5031688;28;20426;-86
2021/03/04 02:57:33;;;;;;;;;;;;;;;;;;5017778;28;19976;-87
2021/03/04 03:00:00;;;;;;;;;;;;;;;;;;5032846;28;19984;-87
2021/03/04 03:02:27;;;;;;;;;;;;;;;;;;5028399;28;19925;-87
2021/03/04 03:04:55;;;;;;;;;;;;;;;;;;5010866;28;19930;-86
2021/03/04 03:07:22;;;;;;;;;;;;;;;;;;5002478;28;20391;-86
2021/03/04 03:09:49;;;;;;;;;;;;;;;;;;4997510;28;20017;-87
2021/03/04 03:12:16;;;;;;;;;;;;;;;;;;5009400;28;19930;-87
2021/03/04 03:14:43;;;;;;;;;;;;;;;;;;5004872;28;19932;-87
2021/03/04 03:17:10;;;;;;;;;;;;;;;;;;5009954;28;19925;-87
2021/03/04 03:19:48;;;;;;;;;;;;;;;;;;5008806;28;19933;-86
2021/03/04 03:22:15;;;;;;;;;;;;;;;;;;5005031;28;20305;-86
2021/03/04 03:24:43;;;;;;;;;;;;;;;;;;5004982;28;19992;-87
2021/03/04 03:27:10;;;;;;;;;;;;;;;;;;5018607;28;19968;-87
2021/03/04 03:29:37;;;;;;;;;;;;;;;;;;5018974;28;19929;-87
2021/03/04 03:32:04;;;;;;;;;;;;;;;;;;5007641;28;19936;-87
2021/03/04 03:34:31;;;;;;;;;;;;;;;;;;5011236;28;19930;-87
2021/03/04 03:36:58;;;;;;;;;;;;;;;;;;5006480;28;19961;-87
2021/03/04 03:39:25;;;;;;;;;;;;;;;;;;5015670;28;20012;-86
2021/03/04 03:41:52;;;;;;;;;;;;;;;;;;5008161;28;20342;-87
2021/03/04 03:44:19;;;;;;;;;;;;;;;;;;5012874;28;19980;-86
2021/03/04 03:46:47;;;;;;;;;;;;;;;;;;5014581;28;19972;-87
2021/03/04 03:49:15;;;;;;;;;;;;;;;;;;5016311;28;19936;-87
2021/03/04 03:51:43;;;;;;;;;;;;;;;;;;5010244;28;20004;-86
2021/03/04 03:54:10;;;;;;;;;;;;;;;;;;4997964;28;19936;-87
2021/03/04 03:56:38;;;;;;;;;;;;;;;;;;5009529;28;20288;-87
2021/03/04 03:59:05;;;;;;;;;;;;;;;;;;5006637;28;20276;-87
2021/03/04 04:01:32;;;;;;;;;;;;;;;;;;5000516;28;20021;-87
2021/03/04 04:03:59;;;;;;;;;;;;;;;;;;5011331;28;19929;-88
2021/03/04 04:06:26;;;;;;;;;;;;;;;;;;5018299;28;19926;-87
2021/03/04 04:08:53;;;;;;;;;;;;;;;;;;5030169;28;19929;-87
2021/03/04 04:11:20;;;;;;;;;;;;;;;;;;5026624;28;19968;-87
2021/03/04 04:13:47;;;;;;;;;;;;;;;;;;5022075;28;20020;-87
2021/03/04 04:16:14;;;;;;;;;;;;;;;;;;5014957;28;20023;-87
2021/03/04 04:18:42;;;;;;;;;;;;;;;;;;5033205;28;20151;-87
2021/03/04 04:21:09;;;;;;;;;;;;;;;;;;5023086;28;19925;-87
2021/03/04 04:23:36;;;;;;;;;;;;;;;;;;5025520;28;20346;-87
2021/03/04 04:26:03;;;;;;;;;;;;;;;;;;5017162;28;19963;-86
2021/03/04 04:28:30;;;;;;;;;;;;;;;;;;5026222;28;19992;-87
2021/03/04 04:30:57;;;;;;;;;;;;;;;;;;4995857;28;20017;-87
2021/03/04 04:33:24;;;;;;;;;;;;;;;;;;4995249;28;19929;-87
2021/03/04 04:35:52;;;;;;;;;;;;;;;;;;4996019;28;19930;-88
2021/03/04 04:38:19;;;;;;;;;;;;;;;;;;5013069;28;20051;-87
2021/03/04 04:40:46;;;;;;;;;;;;;;;;;;5022305;28;20452;-87
2021/03/04 04:43:13;;;;;;;;;;;;;;;;;;5024305;28;20012;-87
2021/03/04 04:45:40;;;;;;;;;;;;;;;;;;5015618;28;20029;-87
2021/03/04 04:48:07;;;;;;;;;;;;;;;;;;5020691;28;20400;-87
2021/03/04 04:50:34;;;;;;;;;;;;;;;;;;5023443;28;19980;-86
2021/03/04 04:53:01;;;;;;;;;;;;;;;;;;5019641;28;20374;-87
2021/03/04 04:55:29;;;;;;;;;;;;;;;;;;5026872;28;19925;-87
2021/03/04 04:57:56;;;;;;;;;;;;;;;;;;5024119;28;19925;-87
2021/03/04 05:00:23;;;;;;;;;;;;;;;;;;5024360;28;20024;-87
2021/03/04 05:02:50;;;;;;;;;;;;;;;;;;5015752;28;19939;-87
2021/03/04 05:05:17;;;;;;;;;;;;;;;;;;5021881;28;19980;-87
2021/03/04 05:07:44;;;;;;;;;;;;;;;;;;5020087;28;19976;-86
2021/03/04 05:10:12;;;;;;;;;;;;;;;;;;5018322;28;19952;-87
2021/03/04 05:12:39;;;;;;;;;;;;;;;;;;5013973;28;19963;-87
2021/03/04 05:15:06;;;;;;;;;;;;;;;;;;5018339;28;20397;-87
2021/03/04 05:17:33;;;;;;;;;;;;;;;;;;5030970;28;20011;-87
2021/03/04 05:20:00;;;;;;;;;;;;;;;;;;5016493;28;19925;-87
2021/03/04 05:22:27;;;;;;;;;;;;;;;;;;5025307;28;19930;-87
2021/03/04 05:24:54;;;;;;;;;;;;;;;;;;5029706;28;20340;-87
2021/03/04 05:27:22;;;;;;;;;;;;;;;;;;5033719;28;19967;-87
2021/03/04 05:29:50;;;;;;;;;;;;;;;;;;5019144;28;19925;-86
2021/03/04 05:32:17;;;;;;;;;;;;;;;;;;5021165;28;19926;-86
2021/03/04 05:34:44;;;;;;;;;;;;;;;;;;5013874;28;19926;-87
2021/03/04 05:37:12;;;;;;;;;;;;;;;;;;5019187;28;19969;-87
2021/03/04 05:39:39;;;;;;;;;;;;;;;;;;5021714;28;19940;-86
2021/03/04 05:42:06;;;;;;;;;;;;;;;;;;5022108;28;19926;-86
2021/03/04 05:44:33;;;;;;;;;;;;;;;;;;5021412;28;20020;-86
2021/03/04 05:47:00;;;;;;;;;;;;;;;;;;5023475;28;20016;-86
2021/03/04 05:49:27;;;;;;;;;;;;;;;;;;5009512;28;19929;-87
2021/03/04 05:51:57;;;;;;;;;;;;;;;;;;5011896;28;19930;-87
2021/03/04 05:54:24;;;;;;;;;;;;;;;;;;5006249;28;20029;-87
2021/03/04 05:56:52;;;;;;;;;;;;;;;;;;5014428;28;19972;-86
2021/03/04 05:59:19;;;;;;;;;;;;;;;;;;5011863;28;20028;-87
2021/03/04 06:01:46;;;;;;;;;;;;;;;;;;5013817;28;19926;-86
2021/03/04 06:04:13;;;;;;;;;;;;;;;;;;5018782;28;19932;-86
2021/03/04 06:06:40;;;;;;;;;;;;;;;;;;5017226;28;19947;-88
2021/03/04 06:09:07;;;;;;;;;;;;;;;;;;5030863;28;20036;-86
2021/03/04 06:11:35;;;;;;;;;;;;;;;;;;5014097;28;19936;-87
2021/03/04 06:14:02;;;;;;;;;;;;;;;;;;5015140;28;19965;-86
2021/03/04 06:16:29;;;;;;;;;;;;;;;;;;5019853;28;20328;-86
2021/03/04 06:18:56;;;;;;;;;;;;;;;;;;5014491;28;19937;-86
2021/03/04 06:21:23;;;;;;;;;;;;;;;;;;5015623;28;20032;-87
2021/03/04 06:23:50;;;;;;;;;;;;;;;;;;5025386;28;20045;-86
2021/03/04 06:26:18;;;;;;;;;;;;;;;;;;5014165;28;19929;-87
2021/03/04 06:28:45;;;;;;;;;;;;;;;;;;5006000;28;19932;-87
2021/03/04 06:31:12;;;;;;;;;;;;;;;;;;5011238;28;19932;-86
2021/03/04 06:33:39;;;;;;;;;;;;;;;;;;5015415;28;19933;-86
2021/03/04 06:36:07;;;;;;;;;;;;;;;;;;5024413;28;19932;-86
2021/03/04 06:38:34;;;;;;;;;;;;;;;;;;5017363;28;19992;-86
2021/03/04 06:41:02;;;;;;;;;;;;;;;;;;4995306;28;19929;-86
2021/03/04 06:43:29;;;;;;;;;;;;;;;;;;5014073;28;20358;-86
2021/03/04 06:45:56;;;;;;;;;;;;;;;;;;5010681;28;19976;-86
2021/03/04 06:48:24;;;;;;;;;;;;;;;;;;5009596;28;19972;-87
2021/03/04 06:50:51;;;;;;;;;;;;;;;;;;5010963;28;20050;-87
2021/03/04 06:53:18;;;;;;;;;;;;;;;;;;5008467;28;20015;-86
2021/03/04 06:55:46;;;;;;;;;;;;;;;;;;5008695;28;20033;-87
2021/03/04 06:58:13;;;;;;;;;;;;;;;;;;5009082;28;19929;-86
2021/03/04 07:00:40;;;;;;;;;;;;;;;;;;5014479;28;20430;-87
2021/03/04 07:03:08;;;;;;;;;;;;;;;;;;5015831;28;19953;-87
2021/03/04 07:05:35;;;;;;;;;;;;;;;;;;5015281;28;19975;-87
2021/03/04 07:08:02;;;;;;;;;;;;;;;;;;5015034;28;20020;-87
2021/03/04 07:10:29;;;;;;;;;;;;;;;;;;5013529;28;19930;-86
2021/03/04 07:12:56;;;;;;;;;;;;;;;;;;5013772;28;20377;-86
2021/03/04 07:15:24;;;;;;;;;;;;;;;;;;5014539;28;19969;-88
2021/03/04 07:17:51;;;;;;;;;;;;;;;;;;5010505;28;19929;-88
2021/03/04 07:20:19;;;;;;;;;;;;;;;;;;5011354;28;19925;-86
2021/03/04 07:23:04;;;;;;;;;;;;;;;;;;5008238;28;19929;-87
2021/03/04 07:25:32;;;;;;;;;;;;;;;;;;5009764;28;19933;-86
2021/03/04 07:27:59;;;;;;;;;;;;;;;;;;5005565;28;20108;-85
2021/03/04 07:30:26;;;;;;;;;;;;;;;;;;5012968;28;20024;-86
2021/03/04 07:32:53;;;;;;;;;;;;;;;;;;5012872;28;20298;-86
2021/03/04 07:35:21;;;;;;;;;;;;;;;;;;5013299;28;19930;-86
2021/03/04 07:37:48;;;;;;;;;;;;;;;;;;5014466;28;20715;-85
2021/03/04 07:40:15;;;;;;;;;;;;;;;;;;5017986;28;20420;-86
2021/03/04 07:42:43;;;;;;;;;;;;;;;;;;5014819;28;19925;-86
2021/03/04 07:45:10;;;;;;;;;;;;;;;;;;5016983;28;19934;-86
2021/03/04 07:47:37;;;;;;;;;;;;;;;;;;5010627;28;19926;-86
2021/03/04 07:50:05;;;;;;;;;;;;;;;;;;5015438;28;19973;-86
2021/03/04 07:52:33;;;;;;;;;;;;;;;;;;5009507;28;19930;-86
2021/03/04 07:55:00;;;;;;;;;;;;;;;;;;5000734;28;19929;-86
2021/03/04 07:57:28;;;;;;;;;;;;;;;;;;5014559;28;19925;-86
2021/03/04 07:59:55;;;;;;;;;;;;;;;;;;5012760;28;19929;-87
2021/03/04 08:02:23;;;;;;;;;;;;;;;;;;4994395;28;20251;-86
2021/03/04 08:04:50;;;;;;;;;;;;;;;;;;5012798;28;20356;-86
2021/03/04 08:07:18;;;;;;;;;;;;;;;;;;5015282;28;19929;-86
2021/03/04 08:09:45;;;;;;;;;;;;;;;;;;5010679;28;19987;-85
2021/03/04 08:12:12;;;;;;;;;;;;;;;;;;5012024;28;19992;-85
2021/03/04 08:14:40;;;;;;;;;;;;;;;;;;5014424;28;19929;-85
2021/03/04 08:17:07;;;;;;;;;;;;;;;;;;5012681;28;19936;-86
2021/03/04 08:19:35;;;;;;;;;;;;;;;;;;5014725;28;19937;-86
2021/03/04 08:22:02;;;;;;;;;;;;;;;;;;5014892;28;19937;-86
2021/03/04 08:24:29;;;;;;;;;;;;;;;;;;5014723;28;19929;-87
2021/03/04 08:26:57;;;;;;;;;;;;;;;;;;5014111;28;20020;-86
2021/03/04 08:29:24;;;;;;;;;;;;;;;;;;5013999;28;19979;-86
2021/03/04 08:31:52;;;;;;;;;;;;;;;;;;5015003;28;19933;-86
2021/03/04 08:34:19;;;;;;;;;;;;;;;;;;5013137;28;20137;-86
2021/03/04 08:36:47;;;;;;;;;;;;;;;;;;5014063;28;20023;-86
2021/03/04 08:39:14;;;;;;;;;;;;;;;;;;5016384;28;19929;-86
2021/03/04 08:41:42;;;;;;;;;;;;;;;;;;5002877;28;19934;-87
2021/03/04 08:44:09;;;;;;;;;;;;;;;;;;5013316;28;20050;-86
2021/03/04 08:46:37;;;;;;;;;;;;;;;;;;5013561;28;19929;-86
2021/03/04 08:49:05;;;;;;;;;;;;;;;;;;5009947;28;19951;-86
2021/03/04 08:51:32;;;;;;;;;;;;;;;;;;5013781;28;19929;-86
2021/03/04 08:54:07;;;;;;;;;;;;;;;;;;5019105;28;19926;-85
2021/03/04 08:56:35;;;;;;;;;;;;;;;;;;5016281;28;19935;-87
2021/03/04 08:59:02;;;;;;;;;;;;;;;;;;5016349;28;20029;-86
2021/03/04 09:01:30;;;;;;;;;;;;;;;;;;5015118;28;19933;-87
2021/03/04 09:03:57;;;;;;;;;;;;;;;;;;5014598;28;19926;-86
2021/03/04 09:06:25;;;;;;;;;;;;;;;;;;5017082;28;19933;-88
2021/03/04 09:08:52;;;;;;;;;;;;;;;;;;5015795;28;19992;-87
2021/03/04 09:11:20;;;;;;;;;;;;;;;;;;5019387;28;19929;-87
2021/03/04 09:13:48;;;;;;;;;;;;;;;;;;5015867;28;19930;-88
2021/03/04 09:16:15;;;;;;;;;;;;;;;;;;5014728;28;19956;-87
2021/03/04 09:18:43;;;;;;;;;;;;;;;;;;5013920;28;19980;-86
2021/03/04 09:21:12;;;;;;;;;;;;;;;;;;5017243;28;19936;-86
2021/03/04 09:23:40;;;;;;;;;;;;;;;;;;5020867;28;19940;-85
2021/03/04 09:26:07;;;;;;;;;;;;;;;;;;5017801;28;19940;-86
2021/03/04 09:28:35;;;;;;;;;;;;;;;;;;5014430;28;19993;-87
2021/03/04 09:31:02;;;;;;;;;;;;;;;;;;5017038;28;19944;-86
2021/03/04 09:33:30;;;;;;;;;;;;;;;;;;5019743;28;20340;-87
2021/03/04 09:35:57;;;;;;;;;;;;;;;;;;5016480;28;19925;-87
2021/03/04 09:38:25;;;;;;;;;;;;;;;;;;5016161;28;19929;-87
2021/03/04 09:41:04;;;;;;;;;;;;;;;;;;5018719;28;19952;-86
2021/03/04 09:43:32;;;;;;;;;;;;;;;;;;5014602;28;19925;-86
2021/03/04 09:45:59;;;;;;;;;;;;;;;;;;5013322;28;19925;-86
2021/03/04 09:48:27;;;;;;;;;;;;;;;;;;5009794;28;19933;-85
2021/03/04 09:50:54;;;;;;;;;;;;;;;;;;5014644;28;19933;-86
2021/03/04 09:53:22;;;;;;;;;;;;;;;;;;5013849;28;19952;-85
2021/03/04 09:55:50;;;;;;;;;;;;;;;;;;5014399;28;20361;-86
2021/03/04 09:58:17;;;;;;;;;;;;;;;;;;5011098;28;20036;-87
2021/03/04 10:00:44;;;;;;;;;;;;;;;;;;5011244;28;19929;-83
2021/03/04 10:03:29;;;;;;;;;;;;;;;;;;5013229;28;19988;-85
2021/03/04 10:05:56;;;;;;;;;;;;;;;;;;5013243;28;19971;-84
2021/03/04 10:08:24;;;;;;;;;;;;;;;;;;5013613;28;20027;-84
2021/03/04 10:10:52;;;;;;;;;;;;;;;;;;5010773;28;19932;-83
2021/03/04 10:13:19;;;;;;;;;;;;;;;;;;5014950;28;19969;-82
2021/03/04 10:15:46;;;;;;;;;;;;;;;;;;5007527;28;19929;-83
2021/03/04 10:18:14;;;;;;;;;;;;;;;;;;5010356;28;19960;-84
2021/03/04 10:20:44;;;;;;;;;;;;;;;;;;5016304;28;19929;-84
2021/03/04 10:23:11;;;;;;;;;;;;;;;;;;5016577;28;19926;-84
2021/03/04 10:25:39;;;;;;;;;;;;;;;;;;5013775;28;19992;-84
2021/03/04 10:28:07;;;;;;;;;;;;;;;;;;5015992;28;19960;-83
2021/03/04 10:30:34;;;;;;;;;;;;;;;;;;5015026;28;19930;-82
2021/03/04 10:33:02;;;;;;;;;;;;;;;;;;5016550;28;19925;-83
2021/03/04 10:35:30;;;;;;;;;;;;;;;;;;5016257;28;19937;-83
2021/03/04 10:37:58;;;;;;;;;;;;;;;;;;5015024;28;19929;-83
2021/03/04 10:40:25;;;;;;;;;;;;;;;;;;5012045;28;20365;-83
2021/03/04 10:42:54;;;;;;;;;;;;;;;;;;5009079;28;19934;-82
2021/03/04 10:45:25;;;;;;;;;;;;;;;;;;5014586;28;19934;-84
2021/03/04 10:47:52;;;;;;;;;;;;;;;;;;5014611;28;20028;-84
2021/03/04 10:50:20;;;;;;;;;;;;;;;;;;5016459;28;19926;-84
2021/03/04 10:52:48;;;;;;;;;;;;;;;;;;5011521;28;19936;-84
2021/03/04 10:55:24;;;;;;;;;;;;;;;;;;5013091;28;19929;-85
2021/03/04 10:57:51;;;;;;;;;;;;;;;;;;5015302;28;20468;-83
2021/03/04 11:00:19;;;;;;;;;;;;;;;;;;5015360;28;20395;-84
2021/03/04 11:02:47;;;;;;;;;;;;;;;;;;5014045;28;19929;-84
2021/03/04 11:05:14;;;;;;;;;;;;;;;;;;5021431;28;19929;-85
2021/03/04 11:07:42;;;;;;;;;;;;;;;;;;5020971;28;19930;-87
2021/03/04 11:10:09;;;;;;;;;;;;;;;;;;5020207;28;19925;-86
2021/03/04 11:12:46;;;;;;;;;;;;;;;;;;5019296;28;19925;-84
2021/03/04 11:15:14;;;;;;;;;;;;;;;;;;5016292;28;19926;-82
2021/03/04 11:17:41;;;;;;;;;;;;;;;;;;5021965;28;19925;-86
2021/03/04 11:20:08;;;;;;;;;;;;;;;;;;5011623;28;19925;-85
2021/03/04 11:22:36;;;;;;;;;;;;;;;;;;5001621;28;20286;-86
2021/03/04 11:25:03;;;;;;;;;;;;;;;;;;5007811;28;19956;-86
2021/03/04 11:27:31;;;;;;;;;;;;;;;;;;5016166;28;19980;-83
2021/03/04 11:29:58;;;;;;;;;;;;;;;;;;5019705;28;21806;-85
2021/03/04 11:32:27;;;;;;;;;;;;;;;;;;5018877;28;19983;-84
2021/03/04 11:34:54;;;;;;;;;;;;;;;;;;5018462;28;20016;-87
2021/03/04 11:37:22;;;;;;;;;;;;;;;;;;5018250;28;19929;-84
2021/03/04 11:39:50;;;;;;;;;;;;;;;;;;5019902;28;19925;-84
2021/03/04 11:42:17;;;;;;;;;;;;;;;;;;5019501;28;19940;-85
2021/03/04 11:44:45;;;;;;;;;;;;;;;;;;5022275;28;20296;-85
2021/03/04 11:47:13;;;;;;;;;;;;;;;;;;5020438;28;19937;-87
2021/03/04 11:49:41;;;;;;;;;;;;;;;;;;4999239;28;20378;-86
2021/03/04 11:52:09;;;;;;;;;;;;;;;;;;5013667;28;20012;-84
2021/03/04 11:54:36;;;;;;;;;;;;;;;;;;5016673;28;19925;-84
2021/03/04 11:57:03;;;;;;;;;;;;;;;;;;5017662;28;20296;-86
2021/03/04 11:59:31;;;;;;;;;;;;;;;;;;5011109;28;19958;-85
2021/03/04 12:01:58;;;;;;;;;;;;;;;;;;5013977;28;19984;-86
2021/03/04 12:04:26;;;;;;;;;;;;;;;;;;5016936;28;19926;-86
2021/03/04 12:06:53;;;;;;;;;;;;;;;;;;5018929;28;20053;-84
2021/03/04 12:09:21;;;;;;;;;;;;;;;;;;5012193;28;19932;-87
2021/03/04 12:11:49;;;;;;;;;;;;;;;;;;5014160;28;19957;-84
2021/03/04 12:14:16;;;;;;;;;;;;;;;;;;5017296;28;20367;-84
2021/03/04 12:16:45;;;;;;;;;;;;;;;;;;5020858;28;20023;-83
2021/03/04 12:19:13;;;;;;;;;;;;;;;;;;5020518;28;19929;-86
2021/03/04 12:21:40;;;;;;;;;;;;;;;;;;5016766;28;19940;-86
2021/03/04 12:24:07;;;;;;;;;;;;;;;;;;5017271;28;20621;-84
2021/03/04 12:26:43;;;;;;;;;;;;;;;;;;5017712;28;19930;-85
2021/03/04 12:29:10;;;;;;;;;;;;;;;;;;5017561;28;20374;-84
2021/03/04 12:31:39;;;;;;;;;;;;;;;;;;5019284;28;19925;-83
2021/03/04 12:34:07;;;;;;;;;;;;;;;;;;5016982;28;19932;-83
2021/03/04 12:36:34;;;;;;;;;;;;;;;;;;4996701;28;20684;-82
2021/03/04 12:39:02;;;;;;;;;;;;;;;;;;5012263;28;19930;-83
2021/03/04 12:41:29;;;;;;;;;;;;;;;;;;5016207;28;19929;-83
2021/03/04 12:43:56;;;;;;;;;;;;;;;;;;5017148;28;19975;-83
2021/03/04 12:46:24;;;;;;;;;;;;;;;;;;5018082;28;19933;-87
2021/03/04 12:48:51;;;;;;;;;;;;;;;;;;5013473;28;19925;-83
2021/03/04 12:51:18;;;;;;;;;;;;;;;;;;5013386;28;20012;-83
2021/03/04 12:53:47;;;;;;;;;;;;;;;;;;5010157;28;19961;-83
2021/03/04 12:56:14;;;;;;;;;;;;;;;;;;5012841;28;19930;-82
2021/03/04 12:58:41;;;;;;;;;;;;;;;;;;5012275;28;20451;-84
2021/03/04 13:01:09;;;;;;;;;;;;;;;;;;5014832;28;19932;-83
2021/03/04 13:03:36;;;;;;;;;;;;;;;;;;5011686;28;20415;-83
2021/03/04 13:06:04;;;;;;;;;;;;;;;;;;5003989;28;19930;-84
2021/03/04 13:08:50;;;;;;;;;;;;;;;;;;4999896;28;20397;-84
2021/03/04 13:11:17;;;;;;;;;;;;;;;;;;5006719;28;19972;-82
2021/03/04 13:13:44;;;;;;;;;;;;;;;;;;5011854;28;19929;-85
2021/03/04 13:16:12;;;;;;;;;;;;;;;;;;5011696;28;20024;-84
2021/03/04 13:18:39;;;;;;;;;;;;;;;;;;5011925;28;20296;-83
2021/03/04 13:21:06;;;;;;;;;;;;;;;;;;5011987;28;19932;-83
2021/03/04 13:23:34;;;;;;;;;;;;;;;;;;5012803;28;19968;-83
2021/03/04 13:26:03;;;;;;;;;;;;;;;;;;5000603;28;19925;-83
2021/03/04 13:28:30;;;;;;;;;;;;;;;;;;5007400;28;20340;-83
2021/03/04 13:30:58;;;;;;;;;;;;;;;;;;5012510;28;19945;-82
2021/03/04 13:33:25;;;;;;;;;;;;;;;;;;5011294;28;20027;-85
2021/03/04 13:35:53;;;;;;;;;;;;;;;;;;5012150;28;19929;-83
2021/03/04 13:38:20;;;;;;;;;;;;;;;;;;5014590;28;20075;-82
2021/03/04 13:40:49;;;;;;;;;;;;;;;;;;5008250;28;19934;-83
2021/03/04 13:43:17;;;;;;;;;;;;;;;;;;5012907;28;20424;-83
2021/03/04 13:45:45;;;;;;;;;;;;;;;;;;5020574;28;19983;-83
2021/03/04 13:48:12;;;;;;;;;;;;;;;;;;5029901;28;19961;-85
2021/03/04 13:50:40;;;;;;;;;;;;;;;;;;5013232;28;19976;-84
2021/03/04 13:53:07;;;;;;;;;;;;;;;;;;5001308;28;20460;-83
2021/03/04 13:55:35;;;;;;;;;;;;;;;;;;5010319;28;19930;-83
2021/03/04 13:58:02;;;;;;;;;;;;;;;;;;5011151;28;20016;-83
2021/03/04 14:00:30;;;;;;;;;;;;;;;;;;5012131;28;19936;-84
2021/03/04 14:02:57;;;;;;;;;;;;;;;;;;5010634;28;19936;-85
2021/03/04 14:05:25;;;;;;;;;;;;;;;;;;5011503;28;19933;-84
2021/03/04 14:07:52;;;;;;;;;;;;;;;;;;5011124;28;19925;-84
2021/03/04 14:10:20;;;;;;;;;;;;;;;;;;5007235;28;19925;-84
2021/03/04 14:12:47;;;;;;;;;;;;;;;;;;5011492;28;20016;-84
2021/03/04 14:15:15;;;;;;;;;;;;;;;;;;5011712;28;19973;-82
2021/03/04 14:17:42;;;;;;;;;;;;;;;;;;5012075;28;20249;-83
2021/03/04 14:20:12;;;;;;;;;;;;;;;;;;5004978;28;20373;-83
2021/03/04 14:22:39;;;;;;;;;;;;;;;;;;5009938;28;19933;-83
2021/03/04 14:25:07;;;;;;;;;;;;;;;;;;5010149;28;19925;-83
2021/03/04 14:27:34;;;;;;;;;;;;;;;;;;5005592;28;19968;-82
2021/03/04 14:30:01;;;;;;;;;;;;;;;;;;5014379;28;19926;-84
2021/03/04 14:32:29;;;;;;;;;;;;;;;;;;5014685;28;19929;-83
2021/03/04 14:34:58;;;;;;;;;;;;;;;;;;5013183;28;20305;-82
2021/03/04 14:37:26;;;;;;;;;;;;;;;;;;5007423;28;20436;-83
2021/03/04 14:39:53;;;;;;;;;;;;;;;;;;5001751;28;19934;-83
2021/03/04 14:42:21;;;;;;;;;;;;;;;;;;5004973;28;19956;-83
2021/03/04 14:44:48;;;;;;;;;;;;;;;;;;5007817;28;20361;-83
2021/03/04 14:47:16;;;;;;;;;;;;;;;;;;5003260;28;20312;-84
2021/03/04 14:49:43;;;;;;;;;;;;;;;;;;5005203;28;20013;-83
2021/03/04 14:52:11;;;;;;;;;;;;;;;;;;5004279;28;20364;-83
2021/03/04 14:54:38;;;;;;;;;;;;;;;;;;5011451;28;19973;-83
2021/03/04 14:57:05;;;;;;;;;;;;;;;;;;5010456;28;19929;-82
2021/03/04 14:59:33;;;;;;;;;;;;;;;;;;5011392;28;20698;-83
2021/03/04 15:02:00;;;;;;;;;;;;;;;;;;5009970;28;20431;-82
2021/03/04 15:04:28;;;;;;;;;;;;;;;;;;5006485;28;19945;-82
2021/03/04 15:06:56;;;;;;;;;;;;;;;;;;5009839;28;19936;-81
2021/03/04 15:09:23;;;;;;;;;;;;;;;;;;5009356;28;19957;-84
2021/03/04 15:11:51;;;;;;;;;;;;;;;;;;5010931;28;20028;-82
2021/03/04 15:14:18;;;;;;;;;;;;;;;;;;5010089;28;20032;-83
2021/03/04 15:16:47;;;;;;;;;;;;;;;;;;5009121;28;20411;-83
2021/03/04 15:19:28;;;;;;;;;;;;;;;;;;5007294;28;19948;-83
2021/03/04 15:21:56;;;;;;;;;;;;;;;;;;5009323;28;19933;-83
2021/03/04 15:24:24;;;;;;;;;;;;;;;;;;5010517;28;19933;-83
2021/03/04 15:26:51;;;;;;;;;;;;;;;;;;5009622;28;19926;-83
2021/03/04 15:29:18;;;;;;;;;;;;;;;;;;5009015;28;19931;-83
2021/03/04 15:31:46;;;;;;;;;;;;;;;;;;5008565;28;19976;-83
2021/03/04 15:34:14;;;;;;;;;;;;;;;;;;5008086;28;19934;-83
2021/03/04 15:36:41;;;;;;;;;;;;;;;;;;4994615;28;19930;-83
2021/03/04 15:39:09;;;;;;;;;;;;;;;;;;4998777;28;20024;-83
2021/03/04 15:41:36;;;;;;;;;;;;;;;;;;4998678;28;19936;-83
2021/03/04 15:44:04;;;;;;;;;;;;;;;;;;5000159;28;20368;-84
2021/03/04 15:46:31;;;;;;;;;;;;;;;;;;5000372;28;19930;-83
2021/03/04 15:48:59;;;;;;;;;;;;;;;;;;5000681;28;20059;-82
2021/03/04 15:51:26;;;;;;;;;;;;;;;;;;5004639;28;19948;-82
2021/03/04 15:53:54;;;;;;;;;;;;;;;;;;5008488;28;19933;-83
2021/03/04 15:56:21;;;;;;;;;;;;;;;;;;5012848;28;19933;-82
2021/03/04 15:58:49;;;;;;;;;;;;;;;;;;5010984;28;19936;-83
2021/03/04 16:01:16;;;;;;;;;;;;;;;;;;5009210;28;19929;-83
2021/03/04 16:03:44;;;;;;;;;;;;;;;;;;5009294;28;19934;-84
2021/03/04 16:06:11;;;;;;;;;;;;;;;;;;5009384;28;19968;-83
2021/03/04 16:08:39;;;;;;;;;;;;;;;;;;5006514;28;19926;-83
2021/03/04 16:11:06;;;;;;;;;;;;;;;;;;5009773;28;19929;-83
2021/03/04 16:13:34;;;;;;;;;;;;;;;;;;5009488;28;20459;-83
2021/03/04 16:16:02;;;;;;;;;;;;;;;;;;5006347;28;19930;-83
2021/03/04 16:18:30;;;;;;;;;;;;;;;;;;5008919;28;20020;-84
2021/03/04 16:20:57;;;;;;;;;;;;;;;;;;5011245;28;20228;-83
2021/03/04 16:23:25;;;;;;;;;;;;;;;;;;5005876;28;20044;-84
2021/03/04 16:25:53;;;;;;;;;;;;;;;;;;5007233;28;19983;-84
2021/03/04 16:28:21;;;;;;;;;;;;;;;;;;5011139;28;20421;-84
2021/03/04 16:30:48;;;;;;;;;;;;;;;;;;5011211;28;19944;-84
2021/03/04 16:33:16;;;;;;;;;;;;;;;;;;5011845;28;19930;-84
2021/03/04 16:35:43;;;;;;;;;;;;;;;;;;5006247;28;20432;-84
2021/03/04 16:38:11;;;;;;;;;;;;;;;;;;5003823;28;19933;-85
2021/03/04 16:40:39;;;;;;;;;;;;;;;;;;5010147;28;20417;-84
2021/03/04 16:43:06;;;;;;;;;;;;;;;;;;5012820;28;19929;-84
2021/03/04 16:45:34;;;;;;;;;;;;;;;;;;5011758;28;20022;-85
2021/03/04 16:48:02;;;;;;;;;;;;;;;;;;5011683;28;19945;-84